createdAt,value
2019-04-21T00:01:34.702Z,46.13
2019-04-21T00:04:12.442Z,48.93
2019-04-21T00:06:48.168Z,45.55
2019-04-21T00:09:26.074Z,47.78
2019-04-21T00:11:57.169Z,44.67
2019-04-21T00:14:18.132Z,52.78
2019-04-21T00:16:45.426Z,54.77
2019-04-21T00:19:14.491Z,48.25
2019-04-21T00:24:24.264Z,47.70
2019-04-21T00:27:04.107Z,50.75
2019-04-21T00:29:38.466Z,46.90
2019-04-21T00:32:03.391Z,47.78
2019-04-21T00:34:19.457Z,49.03
2019-04-21T00:37:00.157Z,47.62
2019-04-21T00:39:49.574Z,45.48
2019-04-21T00:42:12.957Z,48.70
2019-04-21T00:44:29.842Z,52.20
2019-04-21T00:47:03.075Z,50.58
2019-04-21T00:49:37.667Z,53.05
2019-04-21T00:52:28.837Z,53.33
2019-04-21T00:55:05.992Z,53.48
2019-04-21T00:57:25.212Z,48.98
2019-04-21T00:59:52.266Z,51.30
2019-04-21T01:02:26.125Z,49.63
2019-04-21T01:05:02.078Z,51.73
2019-04-21T01:07:26.928Z,50.55
2019-04-21T01:09:49.671Z,52.05
2019-04-21T01:12:26.828Z,50.70
2019-04-21T01:15:04.670Z,53.25
2019-04-21T01:17:30.270Z,50.88
2019-04-21T01:19:56.032Z,53.92
2019-04-21T01:22:08.945Z,52.13
2019-04-21T01:24:42.943Z,53.75
2019-04-21T01:27:21.650Z,54.55
2019-04-21T01:30:02.961Z,55.15
2019-04-21T01:32:29.545Z,54.85
2019-04-21T01:35:02.478Z,54.13
2019-04-21T01:37:41.164Z,54.70
2019-04-21T01:40:14.009Z,51.95
2019-04-21T01:42:33.524Z,53.35
2019-04-21T01:45:00.043Z,52.13
2019-04-21T01:47:29.325Z,50.58
2019-04-21T01:49:53.320Z,55.83
2019-04-21T01:55:06.013Z,55.40
2019-04-21T02:00:04.044Z,52.78
2019-04-21T02:02:46.221Z,50.08
2019-04-21T02:05:18.778Z,53.42
2019-04-21T02:07:44.321Z,50.48
2019-04-21T02:10:22.663Z,49.77
2019-04-21T02:12:46.034Z,45.73
2019-04-21T02:15:17.085Z,49.38
2019-04-21T02:17:43.733Z,50.52
2019-04-21T02:20:09.410Z,48.63
2019-04-21T02:23:06.415Z,49.42
2019-04-21T02:25:22.879Z,46.28
2019-04-21T02:27:54.755Z,50.23
2019-04-21T02:30:33.523Z,50.45
2019-04-21T02:33:02.803Z,50.12
2019-04-21T02:35:38.493Z,52.38
2019-04-21T02:38:01.198Z,45.50
2019-04-21T02:40:33.960Z,49.67
2019-04-21T02:43:07.104Z,50.40
2019-04-21T02:45:30.196Z,46.25
2019-04-21T02:48:04.644Z,46.73
2019-04-21T02:50:34.023Z,46.63
2019-04-21T02:53:13.933Z,46.85
2019-04-21T02:55:31.163Z,47.27
2019-04-21T02:58:09.995Z,45.45
2019-04-21T03:03:13.454Z,48.30
2019-04-21T03:05:54.688Z,49.40
2019-04-21T03:08:25.911Z,46.02
2019-04-21T03:13:29.153Z,45.80
2019-04-21T03:18:24.361Z,44.23
2019-04-21T03:21:00.956Z,44.75
2019-04-21T03:23:31.259Z,48.60
2019-04-21T03:25:51.986Z,43.85
2019-04-21T03:40:57.302Z,48.17
2019-04-21T03:43:36.441Z,46.45
2019-04-21T03:45:58.826Z,42.88
2019-04-21T03:48:35.756Z,45.78
2019-04-21T03:51:04.847Z,45.25
2019-04-21T03:53:31.307Z,43.15
2019-04-21T03:56:12.452Z,42.53
2019-04-21T03:58:53.054Z,45.60
2019-04-21T04:01:08.273Z,42.53
2019-04-21T04:06:20.549Z,42.45
2019-04-21T04:11:31.689Z,41.85
2019-04-21T04:14:04.094Z,40.88
2019-04-21T04:19:05.884Z,42.15
2019-04-21T04:26:37.005Z,40.25
2019-04-21T04:29:06.242Z,38.90
2019-04-21T04:34:04.758Z,36.13
2019-04-21T04:39:37.987Z,37.05
2019-04-21T04:42:03.342Z,36.42
2019-04-21T04:44:51.542Z,34.43
2019-04-21T04:47:05.843Z,34.50
2019-04-21T04:54:41.821Z,37.25
2019-04-21T04:57:08.208Z,38.00
2019-04-21T05:02:14.898Z,40.95
2019-04-21T05:04:35.476Z,36.05
2019-04-21T05:09:30.831Z,39.18
2019-04-21T05:12:00.124Z,35.60
2019-04-21T05:14:30.429Z,39.73
2019-04-21T05:17:08.574Z,40.90
2019-04-21T05:19:34.726Z,35.05
2019-04-21T05:24:23.060Z,30.80
2019-04-21T05:26:53.389Z,31.52
2019-04-21T05:29:20.400Z,31.30
2019-04-21T05:32:09.300Z,29.48
2019-04-21T05:34:37.394Z,29.70
2019-04-21T05:37:18.767Z,29.10
2019-04-21T05:39:37.532Z,29.48
2019-04-21T05:42:08.142Z,33.13
2019-04-21T05:44:59.396Z,24.45
2019-04-21T05:49:52.403Z,24.43
2019-04-21T05:52:21.426Z,23.90
2019-04-21T05:54:57.448Z,26.33
2019-04-21T05:57:22.941Z,22.48
2019-04-21T05:59:53.666Z,26.33
2019-04-21T06:02:47.940Z,25.82
2019-04-21T06:05:05.877Z,25.62
2019-04-21T06:07:28.766Z,22.75
2019-04-21T06:09:59.644Z,20.43
2019-04-21T06:12:31.591Z,21.17
2019-04-21T06:15:02.598Z,19.33
2019-04-21T06:20:00.123Z,21.35
2019-04-21T06:22:30.112Z,22.52
2019-04-21T06:27:38.903Z,25.15
2019-04-21T06:30:04.168Z,21.57
2019-04-21T06:32:47.183Z,22.67
2019-04-21T06:35:23.776Z,18.05
2019-04-21T06:37:56.999Z,19.75
2019-04-21T06:40:21.347Z,28.30
2019-04-21T06:42:53.910Z,17.07
2019-04-21T06:45:21.664Z,20.00
2019-04-21T06:48:04.237Z,13.65
2019-04-21T06:50:15.833Z,17.17
2019-04-21T06:55:15.329Z,17.05
2019-04-21T06:57:45.674Z,18.12
2019-04-21T07:00:12.041Z,12.95
2019-04-21T07:02:52.121Z,12.90
2019-04-21T07:05:24.745Z,12.88
2019-04-21T07:08:05.764Z,11.38
2019-04-21T07:10:24.194Z,32.28
2019-04-21T07:12:48.288Z,13.45
2019-04-21T07:15:25.293Z,12.20
2019-04-21T07:17:53.993Z,12.58
2019-04-21T07:20:21.541Z,11.12
2019-04-21T07:22:55.170Z,12.30
2019-04-21T07:25:22.567Z,11.63
2019-04-21T07:27:52.652Z,11.03
2019-04-21T07:30:31.530Z,11.68
2019-04-21T07:33:05.587Z,12.58
2019-04-21T07:35:26.535Z,11.03
2019-04-21T07:40:23.137Z,10.88
2019-04-21T07:42:57.649Z,10.32
2019-04-21T07:45:26.571Z,9.90
2019-04-21T07:48:16.836Z,11.05
2019-04-21T07:51:04.294Z,8.98
2019-04-21T07:53:49.422Z,8.98
2019-04-21T07:56:06.502Z,9.70
2019-04-21T07:58:53.766Z,9.25
2019-04-21T08:01:20.171Z,12.00
2019-04-21T08:04:14.807Z,12.45
2019-04-21T08:06:20.728Z,9.88
2019-04-21T08:08:51.060Z,9.25
2019-04-21T08:11:15.280Z,9.93
2019-04-21T08:13:55.129Z,11.97
2019-04-21T08:16:24.444Z,13.35
2019-04-21T08:18:52.366Z,8.23
2019-04-21T08:21:24.631Z,8.73
2019-04-21T08:23:48.513Z,8.83
2019-04-21T08:26:24.570Z,9.08
2019-04-21T08:28:52.102Z,9.73
2019-04-21T08:38:58.264Z,9.25
2019-04-21T08:41:27.728Z,18.35
2019-04-21T08:43:56.124Z,11.28
2019-04-21T08:46:31.549Z,9.60
2019-04-21T08:49:04.333Z,9.35
2019-04-21T08:51:33.294Z,8.00
2019-04-21T08:54:03.923Z,8.38
2019-04-21T08:56:48.303Z,7.87
2019-04-21T08:59:25.523Z,8.25
2019-04-21T09:01:55.573Z,9.40
2019-04-21T09:04:29.007Z,7.47
2019-04-21T09:07:19.630Z,6.90
2019-04-21T09:09:38.131Z,8.78
2019-04-21T09:12:04.446Z,6.75
2019-04-21T09:14:30.924Z,9.75
2019-04-21T09:16:56.547Z,8.55
2019-04-21T09:19:48.336Z,6.87
2019-04-21T09:22:05.686Z,12.60
2019-04-21T09:24:35.162Z,7.03
2019-04-21T09:27:06.409Z,6.67
2019-04-21T09:29:26.533Z,7.05
2019-04-21T09:31:48.499Z,10.82
2019-04-21T09:34:24.910Z,8.80
2019-04-21T09:36:52.118Z,7.50
2019-04-21T09:39:21.992Z,7.47
2019-04-21T09:41:53.496Z,11.00
2019-04-21T09:44:30.202Z,5.58
2019-04-21T09:47:01.024Z,9.65
2019-04-21T09:49:31.673Z,8.88
2019-04-21T09:52:02.259Z,9.15
2019-04-21T09:54:45.231Z,9.40
2019-04-21T09:57:25.740Z,19.92
2019-04-21T10:00:02.199Z,10.90
2019-04-21T10:02:34.291Z,9.33
2019-04-21T10:05:09.952Z,5.37
2019-04-21T10:07:50.816Z,7.03
2019-04-21T10:10:27.607Z,8.43
2019-04-21T10:13:05.056Z,6.55
2019-04-21T10:15:37.859Z,5.72
2019-04-21T10:18:15.129Z,9.25
2019-04-21T10:20:51.509Z,6.25
2019-04-21T10:23:27.437Z,8.35
2019-04-21T10:25:59.045Z,6.47
2019-04-21T10:28:35.044Z,10.05
2019-04-21T10:31:14.420Z,5.80
2019-04-21T10:33:52.650Z,6.75
2019-04-21T10:36:26.849Z,9.70
2019-04-21T10:38:57.619Z,7.67
2019-04-21T10:41:29.834Z,9.45
2019-04-21T10:44:07.213Z,8.58
2019-04-21T10:46:40.581Z,9.08
2019-04-21T10:49:12.926Z,7.45
2019-04-21T10:51:46.741Z,7.60
2019-04-21T10:54:22.039Z,7.12
2019-04-21T10:56:52.618Z,7.20
2019-04-21T10:59:26.910Z,6.55
2019-04-21T11:02:00.996Z,6.35
2019-04-21T11:04:37.379Z,9.95
2019-04-21T11:07:15.490Z,8.38
2019-04-21T11:09:44.326Z,8.35
2019-04-21T11:12:17.621Z,5.75
2019-04-21T11:14:52.014Z,8.78
2019-04-21T11:17:25.935Z,7.53
2019-04-21T11:19:59.084Z,7.40
2019-04-21T11:22:40.045Z,4.97
2019-04-21T11:25:15.857Z,5.07
2019-04-21T11:27:58.801Z,6.33
2019-04-21T11:30:31.738Z,10.98
2019-04-21T11:33:07.065Z,9.23
2019-04-21T11:35:41.353Z,25.70
2019-04-21T11:38:52.696Z,6.97
2019-04-21T11:41:08.080Z,6.58
2019-04-21T11:43:39.155Z,5.62
2019-04-21T11:46:12.645Z,9.33
2019-04-21T11:48:48.318Z,6.08
2019-04-21T11:51:30.941Z,8.98
2019-04-21T11:54:04.600Z,12.80
2019-04-21T11:56:48.537Z,9.28
2019-04-21T11:59:19.622Z,6.42
2019-04-21T12:01:55.324Z,7.58
2019-04-21T12:04:25.576Z,10.18
2019-04-21T12:06:57.875Z,6.20
2019-04-21T12:09:30.973Z,5.47
2019-04-21T12:12:03.423Z,5.15
2019-04-21T12:14:41.978Z,5.42
2019-04-21T12:17:14.321Z,7.30
2019-04-21T12:19:52.649Z,5.17
2019-04-21T12:22:29.969Z,5.58
2019-04-21T12:24:58.486Z,9.10
2019-04-21T12:27:32.217Z,3.47
2019-04-21T12:30:03.915Z,4.87
2019-04-21T12:35:17.639Z,4.33
2019-04-21T12:37:49.359Z,5.28
2019-04-21T12:40:30.635Z,4.12
2019-04-21T12:43:00.949Z,4.20
2019-04-21T12:45:31.614Z,6.10
2019-04-21T12:48:08.246Z,5.90
2019-04-21T12:50:43.711Z,5.28
2019-04-21T12:53:25.560Z,8.80
2019-04-21T12:55:57.867Z,4.85
2019-04-21T12:58:31.112Z,4.58
2019-04-21T13:01:03.038Z,11.33
2019-04-21T13:06:15.921Z,5.58
2019-04-21T13:08:55.622Z,9.13
2019-04-21T13:11:29.283Z,7.55
2019-04-21T13:14:03.999Z,6.55
2019-04-21T13:16:34.572Z,3.75
2019-04-21T13:19:09.346Z,4.45
2019-04-21T13:21:42.379Z,6.97
2019-04-21T13:24:26.069Z,7.22
2019-04-21T13:26:59.826Z,4.78
2019-04-21T13:29:32.349Z,7.80
2019-04-21T13:32:08.909Z,8.85
2019-04-21T13:34:40.106Z,8.98
2019-04-21T13:37:12.454Z,5.47
2019-04-21T13:42:30.177Z,6.40
2019-04-21T13:47:42.865Z,3.90
2019-04-21T13:50:17.341Z,4.72
2019-04-21T13:52:51.636Z,3.15
2019-04-21T13:55:23.506Z,6.42
2019-04-21T13:57:52.879Z,3.15
2019-04-21T14:00:37.952Z,3.15
2019-04-21T14:03:21.031Z,4.50
2019-04-21T14:05:50.656Z,4.40
2019-04-21T14:10:55.725Z,4.03
2019-04-21T14:13:30.267Z,4.17
2019-04-21T14:16:02.229Z,4.03
2019-04-21T14:18:34.216Z,3.83
2019-04-21T14:21:04.975Z,9.20
2019-04-21T14:23:41.872Z,8.18
2019-04-21T14:26:08.678Z,3.75
2019-04-21T14:28:40.957Z,8.03
2019-04-21T14:31:12.498Z,3.27
2019-04-21T14:36:16.767Z,7.78
2019-04-21T14:38:52.358Z,3.40
2019-04-21T14:41:28.765Z,2.67
2019-04-21T14:44:01.060Z,4.22
2019-04-21T14:46:35.003Z,6.03
2019-04-21T14:49:19.435Z,4.10
2019-04-21T14:51:54.819Z,2.77
2019-04-21T14:54:42.618Z,5.00
2019-04-21T14:57:15.552Z,4.35
2019-04-21T14:59:49.091Z,8.98
2019-04-21T15:02:20.271Z,4.50
2019-04-21T15:04:51.472Z,3.98
2019-04-21T15:10:02.424Z,3.17
2019-04-21T15:12:25.876Z,6.20
2019-04-21T15:15:00.255Z,3.65
2019-04-21T15:17:31.597Z,5.35
2019-04-21T15:20:10.513Z,3.62
2019-04-21T15:22:39.190Z,4.42
2019-04-21T15:25:10.022Z,4.45
2019-04-21T15:27:46.714Z,4.60
2019-04-21T15:30:18.679Z,5.35
2019-04-21T15:32:48.744Z,2.52
2019-04-21T15:35:17.519Z,4.33
2019-04-21T15:37:49.865Z,3.40
2019-04-21T15:40:30.225Z,4.15
2019-04-21T15:42:52.508Z,3.12
2019-04-21T15:45:22.241Z,4.87
2019-04-21T15:47:52.324Z,3.98
2019-04-21T15:50:24.705Z,5.60
2019-04-21T15:52:57.951Z,4.90
2019-04-21T15:55:46.668Z,4.33
2019-04-21T15:58:24.849Z,4.50
2019-04-21T16:01:14.496Z,7.58
2019-04-21T16:03:44.839Z,2.87
2019-04-21T16:06:14.570Z,2.87
2019-04-21T16:08:47.496Z,7.83
2019-04-21T16:11:17.567Z,4.75
2019-04-21T16:13:47.807Z,3.65
2019-04-21T16:16:17.538Z,5.08
2019-04-21T16:18:47.871Z,10.32
2019-04-21T16:21:18.050Z,4.03
2019-04-21T16:23:49.040Z,5.97
2019-04-21T16:26:40.414Z,7.42
2019-04-21T16:29:13.415Z,9.53
2019-04-21T16:31:57.470Z,5.55
2019-04-21T16:34:43.533Z,4.12
2019-04-21T16:37:25.774Z,5.55
2019-04-21T16:40:01.257Z,4.87
2019-04-21T16:42:34.196Z,4.03
2019-04-21T16:45:10.624Z,3.05
2019-04-21T16:47:42.179Z,3.83
2019-04-21T16:55:35.236Z,7.08
2019-04-21T16:58:18.145Z,6.85
2019-04-21T17:00:57.554Z,4.78
2019-04-21T17:03:18.862Z,4.72
2019-04-21T17:05:48.142Z,5.22
2019-04-21T17:08:18.166Z,5.47
2019-04-21T17:10:58.965Z,4.35
2019-04-21T17:16:07.765Z,5.53
2019-04-21T17:18:36.740Z,5.10
2019-04-21T17:23:25.155Z,5.80
2019-04-21T17:25:55.211Z,7.85
2019-04-21T17:28:25.893Z,8.75
2019-04-21T17:30:56.202Z,6.83
2019-04-21T17:33:28.031Z,8.90
2019-04-21T17:35:56.867Z,10.33
2019-04-21T17:38:26.430Z,8.30
2019-04-21T17:41:09.452Z,7.45
2019-04-21T17:43:27.672Z,9.20
2019-04-21T17:45:59.324Z,8.90
2019-04-21T17:48:29.282Z,12.40
2019-04-21T17:51:01.253Z,9.83
2019-04-21T17:53:38.209Z,8.85
2019-04-21T17:56:23.462Z,10.60
2019-04-21T17:59:01.737Z,9.33
2019-04-21T18:01:32.060Z,10.85
2019-04-21T18:04:10.910Z,13.10
2019-04-21T18:06:36.604Z,11.38
2019-04-21T18:09:20.441Z,10.30
2019-04-21T18:11:49.438Z,10.05
2019-04-21T18:13:57.541Z,9.50
2019-04-21T18:16:35.439Z,8.73
2019-04-21T18:18:59.150Z,9.50
2019-04-21T18:21:32.906Z,9.48
2019-04-21T18:24:08.026Z,9.35
2019-04-21T18:26:46.779Z,9.45
2019-04-21T18:29:09.556Z,11.55
2019-04-21T18:31:44.564Z,8.63
2019-04-21T18:34:13.980Z,8.63
2019-04-21T18:36:48.001Z,10.13
2019-04-21T18:39:34.284Z,8.18
2019-04-21T18:42:09.409Z,9.30
2019-04-21T18:44:53.716Z,10.40
2019-04-21T18:47:31.496Z,11.48
2019-04-21T18:49:45.931Z,9.83
2019-04-21T18:52:26.732Z,9.83
2019-04-21T18:55:01.180Z,14.00
2019-04-21T18:57:27.400Z,13.55
2019-04-21T18:59:51.320Z,12.15
2019-04-21T19:02:22.315Z,11.75
2019-04-21T19:04:55.854Z,9.98
2019-04-21T19:07:37.763Z,10.80
2019-04-21T19:10:33.921Z,11.78
2019-04-21T19:13:09.130Z,11.80
2019-04-21T19:15:07.690Z,16.27
2019-04-21T19:20:13.911Z,11.73
2019-04-21T19:22:42.084Z,11.25
2019-04-21T19:25:25.343Z,12.40
2019-04-21T19:27:41.842Z,9.40
2019-04-21T19:32:41.342Z,10.68
2019-04-21T19:35:03.347Z,8.95
2019-04-21T19:37:43.004Z,9.80
2019-04-21T19:40:26.916Z,11.45
2019-04-21T19:42:51.163Z,12.63
2019-04-21T19:45:26.618Z,11.57
2019-04-21T19:54:40.925Z,8.98
2019-04-21T19:57:08.946Z,12.63
2019-04-21T19:59:44.638Z,10.00
2019-04-21T20:02:09.630Z,11.68
2019-04-21T20:04:46.648Z,10.88
2019-04-21T20:07:23.395Z,9.35
2019-04-21T20:09:57.644Z,13.48
2019-04-21T20:12:35.567Z,8.30
2019-04-21T20:15:08.064Z,12.05
2019-04-21T20:17:33.534Z,10.05
2019-04-21T20:19:46.048Z,10.88
2019-04-21T20:22:15.155Z,10.15
2019-04-21T20:24:49.998Z,10.70
2019-04-21T20:27:24.074Z,9.75
2019-04-21T20:30:03.427Z,10.15
2019-04-21T20:32:38.470Z,8.63
2019-04-21T20:35:07.146Z,10.05
2019-04-21T20:37:31.515Z,11.68
2019-04-21T20:39:56.190Z,9.25
2019-04-21T20:42:35.090Z,10.95
2019-04-21T20:45:25.231Z,14.25
2019-04-21T20:47:31.163Z,11.45
2019-04-21T20:50:03.261Z,9.70
2019-04-21T20:52:41.720Z,11.57
